Time;durP1;ratioP1;P1;durP2;ratioP2;P2;SDS_P1;SDS_P2;PMS_P1;PMS_P2;Temp;Humidity;BMP_temperature;BMP_pressure;BME280_temperature;BME280_humidity;BME280_pressure;Samples;Min_cycle;Max_cycle;Signal;HPM_P1;HPM_P2
2022/06/16 00:01:06;;;;;;;13.23;4.68;;;;;;;21.54;47.69;93002.59;2045356;70;20186;-71
2022/06/16 00:03:32;;;;;;;14.13;4.57;;;;;;;21.20;49.40;93002.38;2045433;70;20158;-72
2022/06/16 00:05:58;;;;;;;9.98;4.60;;;;;;;21.31;49.05;92999.16;2045271;70;20499;-71
2022/06/16 00:08:23;;;;;;;11.55;4.65;;;;;;;21.48;48.22;93008.88;2045184;70;20230;-71
2022/06/16 00:13:37;;;;;;;17.40;4.95;;;;;;;21.31;47.96;93022.06;2044716;70;20202;-71
2022/06/16 00:16:05;;;;;;;11.38;4.85;;;;;;;21.54;46.54;93023.34;2047579;70;20183;-71
2022/06/16 00:18:31;;;;;;;15.25;5.35;;;;;;;21.54;46.83;93014.03;2048434;70;20159;-70
2022/06/16 00:20:58;;;;;;;17.23;4.75;;;;;;;21.64;47.21;93017.16;2045268;70;20595;-70
2022/06/16 00:23:25;;;;;;;12.75;4.65;;;;;;;21.71;46.33;93023.75;2048655;70;20219;-71
2022/06/16 00:25:51;;;;;;;15.48;4.65;;;;;;;21.63;46.96;93021.44;2048108;70;20224;-70
2022/06/16 00:28:16;;;;;;;12.20;5.47;;;;;;;21.50;48.03;93014.66;2048486;70;20241;-70
2022/06/16 00:30:42;;;;;;;14.75;4.90;;;;;;;21.59;47.34;93015.59;2044593;70;20149;-70
2022/06/16 00:33:08;;;;;;;11.57;4.32;;;;;;;21.59;47.28;93023.47;2048457;70;20309;-71
2022/06/16 00:35:35;;;;;;;11.82;4.47;;;;;;;21.59;47.85;93029.91;2048511;70;20679;-71
2022/06/16 00:38:01;;;;;;;13.45;5.15;;;;;;;21.52;47.92;93028.28;2048467;70;20220;-72
2022/06/16 00:40:27;;;;;;;15.30;5.28;;;;;;;21.79;47.00;93023.94;2042528;70;20166;-71
2022/06/16 00:42:53;;;;;;;14.98;4.75;;;;;;;21.63;48.18;93032.16;2048317;70;20239;-71
2022/06/16 00:45:44;;;;;;;14.38;4.55;;;;;;;21.56;48.65;93039.84;2045052;70;20578;-70
2022/06/16 00:48:18;;;;;;;16.48;4.35;;;;;;;21.70;48.40;93045.22;2041853;70;20499;-72
2022/06/16 00:50:49;;;;;;;13.27;4.60;;;;;;;21.53;49.61;93044.06;2039178;70;20331;-71
2022/06/16 00:53:15;;;;;;;14.95;5.00;;;;;;;21.14;51.33;93034.44;2044963;70;20174;-71
2022/06/16 00:55:41;;;;;;;10.57;4.45;;;;;;;21.44;50.76;93039.53;2046629;70;20151;-70
2022/06/16 00:58:09;;;;;;;14.85;4.70;;;;;;;21.44;49.95;93030.94;2044253;70;20161;-70
2022/06/16 01:00:47;;;;;;;16.30;4.55;;;;;;;21.57;49.37;93032.72;2039429;70;20166;-70
2022/06/16 01:04:51;;;;;;;14.80;4.55;;;;;;;21.42;49.98;93034.50;2045612;70;20158;-71
2022/06/16 01:06:02;;;;;;;12.35;4.55;;;;;;;21.42;51.00;93022.31;2042334;70;20213;-69
2022/06/16 01:08:28;;;;;;;13.25;5.13;;;;;;;21.35;50.52;93015.72;2042392;70;20189;-72
2022/06/16 01:11:03;;;;;;;14.32;5.18;;;;;;;21.42;49.82;93011.59;2044671;70;20252;-71
2022/06/16 01:13:50;;;;;;;15.02;4.63;;;;;;;21.64;49.16;93002.81;2046373;70;20189;-71
2022/06/16 01:16:36;;;;;;;11.73;4.43;;;;;;;21.44;50.42;93003.06;2045474;70;20157;-71
2022/06/16 01:19:08;;;;;;;16.48;4.97;;;;;;;21.36;50.59;92997.13;2049076;70;20154;-71
2022/06/16 01:21:49;;;;;;;16.70;5.07;;;;;;;21.47;49.80;92995.22;2044888;70;20625;-71
2022/06/16 01:24:43;;;;;;;11.48;4.80;;;;;;;21.45;49.32;92987.31;2044414;70;20190;-69
2022/06/16 01:27:30;;;;;;;16.08;4.45;;;;;;;21.08;51.44;92976.31;2045293;70;20164;-71
2022/06/16 01:30:10;;;;;;;9.70;4.05;;;;;;;21.30;50.54;92977.63;2045511;70;20170;-70
2022/06/16 01:33:15;;;;;;;19.63;5.18;;;;;;;21.41;49.80;92972.19;2048270;70;20147;-71
2022/06/16 01:36:01;;;;;;;16.10;4.65;;;;;;;21.36;49.77;92976.34;2050666;70;20164;-71
2022/06/16 01:39:00;;;;;;;10.75;4.13;;;;;;;21.36;50.13;92977.06;2050878;70;20512;-71
2022/06/16 01:41:44;;;;;;;11.23;4.63;;;;;;;21.22;50.21;92968.81;2047651;70;20139;-71
2022/06/16 01:44:15;;;;;;;10.75;4.50;;;;;;;21.11;50.59;92974.97;2048031;70;20527;-71
2022/06/16 01:46:45;;;;;;;13.45;4.63;;;;;;;21.05;50.26;92976.25;2047764;70;20166;-71
2022/06/16 01:49:28;;;;;;;10.15;4.53;;;;;;;21.29;48.83;92979.00;2048069;70;20155;-71
2022/06/16 01:52:00;;;;;;;10.90;4.00;;;;;;;21.20;49.10;92976.63;2050833;70;20130;-71
2022/06/16 01:54:33;;;;;;;9.60;4.07;;;;;;;21.03;50.16;92973.34;2050656;70;20214;-72
2022/06/16 01:57:06;;;;;;;7.00;4.10;;;;;;;21.02;50.15;92971.16;2047871;70;20170;-72
2022/06/16 01:59:42;;;;;;;9.20;4.10;;;;;;;21.03;50.28;92975.50;2050471;70;20266;-70
2022/06/16 02:02:15;;;;;;;11.80;4.07;;;;;;;20.95;50.62;92973.13;2045433;70;20162;-73
2022/06/16 02:04:44;;;;;;;;;;;;;;;21.00;50.61;92977.56;2047670;70;20151;-70
2022/06/16 02:07:18;;;;;;;11.45;4.20;;;;;;;20.84;50.42;92976.38;2050311;70;20062;-72
2022/06/16 02:09:49;;;;;;;8.07;4.10;;;;;;;20.73;50.77;92973.25;2049347;70;20147;-72
2022/06/16 02:15:39;;;;;;;12.52;4.10;;;;;;;20.87;49.68;92984.34;2045159;70;20162;-71
2022/06/16 02:18:10;;;;;;;12.23;4.38;;;;;;;20.67;51.13;92983.81;2048957;69;20201;-71
2022/06/16 02:20:56;;;;;;;10.57;4.10;;;;;;;20.73;50.80;92987.56;2045559;70;20146;-72
2022/06/16 02:23:22;;;;;;;13.27;4.60;;;;;;;20.80;50.79;92994.16;2045628;70;20572;-72
2022/06/16 02:25:55;;;;;;;11.95;4.57;;;;;;;20.65;51.06;92995.91;2044854;70;20163;-71
2022/06/16 02:28:22;;;;;;;8.00;4.38;;;;;;;20.60;51.47;92985.03;2044361;69;20150;-71
2022/06/16 02:30:57;;;;;;;10.63;4.80;;;;;;;20.49;51.70;92993.34;2045197;70;20488;-70
2022/06/16 02:33:48;;;;;;;12.35;4.32;;;;;;;20.53;51.79;92984.16;2042115;70;20576;-71
2022/06/16 02:36:48;;;;;;;11.40;4.57;;;;;;;20.50;51.74;92976.91;2045482;70;20680;-71
2022/06/16 02:39:50;;;;;;;13.90;5.00;;;;;;;20.47;50.93;92975.34;2042363;70;20209;-70
2022/06/16 02:42:26;;;;;;;10.87;4.33;;;;;;;20.60;50.63;92965.75;2045260;70;20162;-71
2022/06/16 02:45:12;;;;;;;9.05;3.80;;;;;;;20.49;51.25;92976.16;2046530;70;20272;-72
2022/06/16 02:47:56;;;;;;;12.73;4.10;;;;;;;20.52;50.23;92976.94;2045726;70;20154;-71
2022/06/16 02:50:53;;;;;;;10.52;4.40;;;;;;;19.93;52.83;92973.09;2045440;70;20626;-71
2022/06/16 02:54:20;;;;;;;10.70;4.32;;;;;;;20.20;51.42;92980.28;2045697;70;20174;-72
2022/06/16 02:56:46;;;;;;;14.27;4.30;;;;;;;20.35;51.11;92986.44;2043857;70;20564;-71
2022/06/16 02:59:19;;;;;;;10.82;4.13;;;;;;;19.97;52.75;92984.63;2042634;70;20504;-72
2022/06/16 03:01:46;;;;;;;10.82;4.10;;;;;;;20.20;51.27;92988.88;2042270;70;20143;-71
2022/06/16 03:04:15;;;;;;;12.18;4.30;;;;;;;20.44;49.91;92974.56;2045531;70;20150;-72
2022/06/16 03:06:45;;;;;;;14.32;4.45;;;;;;;20.29;50.25;92978.41;2042434;70;20179;-72
2022/06/16 03:09:12;;;;;;;9.38;4.65;;;;;;;20.37;50.11;92978.66;2042354;70;20254;-72
2022/06/16 03:11:40;;;;;;;12.57;4.20;;;;;;;20.21;50.52;92975.34;2045690;70;20147;-71
2022/06/16 03:14:10;;;;;;;9.80;4.20;;;;;;;20.31;50.08;92972.75;2042448;70;20151;-71
2022/06/16 03:16:40;;;;;;;9.98;4.20;;;;;;;20.39;49.08;92973.00;2042261;70;20151;-71
2022/06/16 03:19:06;;;;;;;8.75;3.90;;;;;;;20.25;49.67;92964.75;2048637;70;20165;-71
2022/06/16 03:21:32;;;;;;;6.50;3.60;;;;;;;20.24;50.71;92960.41;2048733;70;20201;-72
2022/06/16 03:23:58;;;;;;;12.70;4.07;;;;;;;20.05;50.94;92956.28;2045564;70;20585;-72
2022/06/16 03:26:25;;;;;;;9.48;4.07;;;;;;;20.22;49.83;92956.78;2044150;70;20174;-72
2022/06/16 03:28:54;;;;;;;10.80;4.50;;;;;;;20.18;50.08;92965.22;2045540;70;20146;-72
2022/06/16 03:31:20;;;;;;;11.80;4.10;;;;;;;20.20;50.13;92980.28;2042192;70;20155;-71
2022/06/16 03:33:48;;;;;;;11.80;4.18;;;;;;;20.10;49.68;92973.56;2044610;70;20157;-71
2022/06/16 03:36:14;;;;;;;10.82;4.28;;;;;;;20.15;49.72;92973.00;2039639;70;20143;-71
2022/06/16 03:38:42;;;;;;;8.05;4.20;;;;;;;20.11;49.66;92981.47;2042252;70;20147;-71
2022/06/16 03:41:11;;;;;;;13.23;4.57;;;;;;;20.04;49.11;92980.56;2042249;70;20207;-71
2022/06/16 03:43:38;;;;;;;9.82;3.92;;;;;;;20.17;49.33;92975.22;2042171;70;20154;-71
2022/06/16 03:46:16;;;;;;;11.15;4.75;;;;;;;20.15;49.70;92986.56;2041948;70;20536;-71
2022/06/16 03:48:47;;;;;;;11.65;4.18;;;;;;;20.06;49.83;92997.03;2042248;70;20214;-71
2022/06/16 03:51:20;;;;;;;9.63;4.55;;;;;;;19.87;50.65;92984.31;2042251;70;20570;-71
2022/06/16 03:53:46;;;;;;;13.82;4.43;;;;;;;19.95;51.66;93006.69;2045398;70;20547;-71
2022/06/16 03:56:13;;;;;;;9.93;4.20;;;;;;;19.95;51.14;93003.84;2042173;70;20147;-70
2022/06/16 03:58:40;;;;;;;11.13;4.25;;;;;;;20.18;49.49;93005.97;2042181;70;20577;-71
2022/06/16 04:01:06;;;;;;;9.82;4.22;;;;;;;20.18;50.47;93008.09;2045220;70;20239;-71
2022/06/16 04:06:20;;;;;;;9.70;4.65;;;;;;;19.95;51.48;93018.13;2045391;70;20139;-71
2022/06/16 04:08:49;;;;;;;9.82;4.00;;;;;;;20.11;50.10;93015.75;2048498;70;20583;-71
2022/06/16 04:11:27;;;;;;;8.65;4.20;;;;;;;20.20;50.17;93008.88;2045362;70;20177;-71
2022/06/16 04:14:04;;;;;;;8.20;4.30;;;;;;;20.05;51.42;93007.72;2045496;70;20238;-71
2022/06/16 04:16:32;;;;;;;12.55;4.57;;;;;;;20.21;50.14;93013.22;2045001;69;20150;-71
2022/06/16 04:18:59;;;;;;;9.80;4.03;;;;;;;20.18;50.32;92999.53;2048702;70;20238;-71
2022/06/16 04:21:25;;;;;;;11.63;4.30;;;;;;;20.23;50.15;93009.69;2045421;70;20166;-71
2022/06/16 04:24:13;;;;;;;12.90;4.22;;;;;;;20.33;48.98;92995.69;2045545;70;20201;-71
2022/06/16 04:26:40;;;;;;;10.55;4.07;;;;;;;20.30;49.53;92992.06;2045187;70;20189;-71
2022/06/16 04:29:08;;;;;;;10.57;3.85;;;;;;;20.26;49.47;92991.94;2048709;70;20217;-71
2022/06/16 04:31:34;;;;;;;9.45;4.50;;;;;;;20.28;50.04;92991.97;2043563;70;20154;-71
2022/06/16 04:33:59;;;;;;;9.63;3.92;;;;;;;20.23;49.69;92986.81;2042124;70;20147;-71
2022/06/16 04:36:26;;;;;;;7.93;3.75;;;;;;;20.31;48.60;92990.66;2045323;70;20258;-71
2022/06/16 04:39:01;;;;;;;14.25;4.20;;;;;;;20.18;48.62;92982.38;2042083;70;20154;-71
2022/06/16 04:41:27;;;;;;;11.98;4.40;;;;;;;19.76;51.75;92997.56;2039241;70;20162;-72
2022/06/16 04:43:53;;;;;;;10.50;4.05;;;;;;;19.62;52.32;92999.97;2041898;70;20163;-73
2022/06/16 04:46:20;;;;;;;11.38;4.57;;;;;;;20.19;49.42;92998.13;2044145;70;20155;-71
2022/06/16 04:48:48;;;;;;;14.05;4.50;;;;;;;20.19;49.84;92998.13;2041972;70;20163;-71
2022/06/16 04:51:16;;;;;;;11.38;4.22;;;;;;;20.28;50.13;92985.53;2041673;70;20206;-71
2022/06/16 04:53:48;;;;;;;10.18;4.50;;;;;;;20.21;50.36;92983.91;2041912;70;20240;-71
2022/06/16 04:56:32;;;;;;;8.98;4.00;;;;;;;20.30;50.62;92988.47;2046584;70;20149;-71
2022/06/16 04:59:21;;;;;;;14.40;4.00;;;;;;;20.37;50.60;92995.06;2047842;70;20624;-71
2022/06/16 05:02:09;;;;;;;10.77;4.10;;;;;;;20.36;50.99;92994.34;2041918;70;20651;-71
2022/06/16 05:04:58;;;;;;;11.90;4.32;;;;;;;20.47;51.35;92996.13;2044153;70;20162;-71
2022/06/16 05:07:40;;;;;;;9.80;4.28;;;;;;;20.55;51.98;92996.34;2045350;70;20157;-71
2022/06/16 05:10:32;;;;;;;9.80;3.97;;;;;;;20.56;53.19;92994.22;2041376;70;20215;-71
2022/06/16 05:13:17;;;;;;;11.35;4.07;;;;;;;20.53;53.94;92987.72;2041918;70;20210;-71
2022/06/16 05:16:18;;;;;;;13.23;4.50;;;;;;;20.38;49.29;92990.81;2044308;69;20159;-72
2022/06/16 05:19:03;;;;;;;10.93;4.10;;;;;;;20.55;49.51;92998.50;2042088;70;20232;-71
2022/06/16 05:21:47;;;;;;;6.55;3.85;;;;;;;20.64;49.70;93000.19;2041302;70;20175;-71
2022/06/16 05:24:35;;;;;;;8.40;3.92;;;;;;;20.63;49.44;93000.84;2039856;70;20241;-72
2022/06/16 05:27:19;;;;;;;8.85;4.30;;;;;;;20.54;49.32;92999.91;2044110;70;20193;-71
2022/06/16 05:30:05;;;;;;;12.70;3.95;;;;;;;20.54;48.43;92994.19;2044230;70;20145;-71
2022/06/16 05:32:53;;;;;;;10.15;4.30;;;;;;;20.48;48.83;93006.19;2041329;70;20201;-71
2022/06/16 05:35:33;;;;;;;9.18;3.70;;;;;;;20.60;48.89;93005.06;2041433;70;20151;-70
2022/06/16 05:38:18;;;;;;;9.27;3.67;;;;;;;20.81;50.09;92993.50;2041868;70;20151;-71
2022/06/16 05:40:58;;;;;;;9.82;4.18;;;;;;;21.00;49.22;92999.72;2041314;70;20171;-71
2022/06/16 05:43:43;;;;;;;8.82;3.85;;;;;;;20.98;47.77;93000.41;2041687;70;20224;-71
2022/06/16 05:46:27;;;;;;;9.93;4.03;;;;;;;21.26;47.46;93011.16;2044995;70;20158;-72
2022/06/16 05:48:58;;;;;;;8.52;3.90;;;;;;;21.27;47.88;93006.88;2045113;70;20508;-72
2022/06/16 05:51:24;;;;;;;13.50;4.50;;;;;;;20.96;47.64;92991.75;2045058;70;20142;-71
2022/06/16 05:54:04;;;;;;;8.57;3.92;;;;;;;20.91;47.37;92981.59;2045110;70;20135;-71
2022/06/16 05:56:32;;;;;;;9.98;4.68;;;;;;;21.11;47.61;92969.22;2043041;70;20179;-74
2022/06/16 05:58:59;;;;;;;14.05;4.60;;;;;;;21.29;47.33;92978.28;2041815;70;20186;-72
2022/06/16 06:01:26;;;;;;;7.30;3.80;;;;;;;21.28;47.30;92980.44;2041667;70;20151;-71
2022/06/16 06:04:02;;;;;;;11.75;4.40;;;;;;;21.42;46.71;92988.66;2043976;70;20253;-71
2022/06/16 06:06:27;;;;;;;8.90;4.22;;;;;;;21.33;46.58;92998.47;2045037;70;20512;-71
2022/06/16 06:17:20;;;;;;;9.23;4.03;;;;;;;21.41;48.74;93052.38;2041599;70;20167;-71
2022/06/16 06:19:48;;;;;;;11.85;4.00;;;;;;;21.29;49.57;93049.88;2039033;70;20504;-72
2022/06/16 06:22:19;;;;;;;9.48;3.50;;;;;;;21.12;49.91;93077.34;2042237;70;20264;-71
2022/06/16 06:24:54;;;;;;;9.48;3.53;;;;;;;21.18;48.59;93091.81;2044484;70;20489;-71
2022/06/16 06:27:27;;;;;;;11.15;4.43;;;;;;;21.11;49.06;93093.03;2043796;70;20240;-70
2022/06/16 06:29:53;;;;;;;10.57;4.32;;;;;;;21.20;48.56;93091.13;2044210;70;20147;-73
2022/06/16 06:32:21;;;;;;;11.65;4.13;;;;;;;20.78;51.48;93082.81;2044728;70;20247;-72
2022/06/16 06:34:47;;;;;;;10.43;4.45;;;;;;;20.74;53.27;93077.69;2044637;70;20248;-73
2022/06/16 06:37:15;;;;;;;9.90;3.67;;;;;;;20.69;56.56;93078.25;2044504;70;20228;-72
2022/06/16 06:39:41;;;;;;;10.40;3.33;;;;;;;20.78;57.83;93069.22;2043963;70;20225;-71
2022/06/16 06:42:07;;;;;;;8.15;3.92;;;;;;;20.67;55.61;93081.78;2045161;70;20214;-71
2022/06/16 06:44:34;;;;;;;9.18;3.63;;;;;;;21.17;55.33;93070.31;2040648;70;20230;-72
2022/06/16 06:47:01;;;;;;;10.43;3.10;;;;;;;20.94;54.23;93071.13;2042241;70;20154;-72
2022/06/16 06:49:28;;;;;;;11.10;3.95;;;;;;;21.06;57.43;93077.88;2042960;70;20577;-71
2022/06/16 06:51:53;;;;;;;8.90;3.78;;;;;;;21.09;56.16;93104.44;2044633;70;20151;-72
2022/06/16 06:54:20;;;;;;;9.98;3.65;;;;;;;21.25;55.08;93129.91;2043245;69;20150;-72
2022/06/16 06:56:48;;;;;;;10.25;3.80;;;;;;;21.21;56.44;93133.44;2043258;70;20213;-71
2022/06/16 06:59:18;;;;;;;14.27;3.90;;;;;;;21.21;55.38;93142.00;2044335;70;20158;-71
2022/06/16 07:01:48;;;;;;;9.68;3.80;;;;;;;20.84;59.43;93139.47;2045491;70;20597;-72
2022/06/16 07:04:14;;;;;;;8.57;4.07;;;;;;;20.68;61.57;93129.03;2045121;70;20178;-73
2022/06/16 07:06:41;;;;;;;9.23;4.30;;;;;;;20.49;58.86;93127.00;2045689;70;20208;-73
2022/06/16 07:09:09;;;;;;;8.63;4.45;;;;;;;20.49;60.35;93109.84;2046030;70;20608;-72
2022/06/16 07:11:35;;;;;;;9.50;4.03;;;;;;;20.48;58.95;93111.97;2045262;70;20613;-73
2022/06/16 07:14:00;;;;;;;12.13;4.22;;;;;;;20.44;60.07;93111.81;2045673;70;20143;-72
2022/06/16 07:16:26;;;;;;;11.23;4.35;;;;;;;20.53;59.11;93115.69;2047813;70;20580;-72
2022/06/16 07:18:52;;;;;;;7.65;4.40;;;;;;;20.85;57.43;93109.47;2045649;70;20540;-73
2022/06/16 07:21:18;;;;;;;11.15;4.32;;;;;;;20.77;56.58;93109.97;2045760;70;20150;-72
2022/06/16 07:23:43;;;;;;;10.65;4.03;;;;;;;20.71;58.49;93101.19;2048611;70;20575;-72
2022/06/16 07:26:10;;;;;;;8.98;4.20;;;;;;;20.90;57.90;93111.06;2048561;70;20623;-73
2022/06/16 07:28:36;;;;;;;10.52;4.07;;;;;;;20.41;56.52;93116.00;2046438;70;20178;-72
2022/06/16 07:31:02;;;;;;;10.82;4.18;;;;;;;20.52;57.14;93088.47;2047581;70;20150;-71
2022/06/16 07:33:28;;;;;;;12.60;4.28;;;;;;;20.53;56.50;93067.81;2045811;70;20585;-72
2022/06/16 07:35:55;;;;;;;11.18;4.45;;;;;;;20.52;58.02;93077.03;2045783;70;20247;-71
2022/06/16 07:38:24;;;;;;;8.15;4.00;;;;;;;20.76;56.10;93065.59;2048574;70;20158;-71
2022/06/16 07:40:49;;;;;;;12.75;4.72;;;;;;;20.64;58.14;93068.09;2053828;69;20177;-71
2022/06/16 07:43:15;;;;;;;10.07;4.40;;;;;;;21.14;56.24;93073.81;2068226;69;20261;-72
2022/06/16 07:45:41;;;;;;;11.43;4.57;;;;;;;21.14;57.02;93073.81;2056095;69;20583;-72
2022/06/16 07:48:08;;;;;;;11.35;4.45;;;;;;;21.38;55.57;93079.47;2048676;70;20150;-72
2022/06/16 07:50:38;;;;;;;12.75;4.80;;;;;;;20.88;58.58;93103.13;2048625;70;20154;-73
2022/06/16 07:53:04;;;;;;;11.15;4.10;;;;;;;20.96;55.63;93103.38;2047381;70;20163;-72
2022/06/16 07:55:31;;;;;;;9.98;4.35;;;;;;;20.59;57.87;93107.28;2048135;70;20254;-72
2022/06/16 07:57:57;;;;;;;13.30;5.00;;;;;;;20.60;57.59;93105.88;2050179;69;20158;-72
2022/06/16 08:00:27;;;;;;;10.05;4.57;;;;;;;20.26;58.36;93114.84;2048632;70;20631;-72
2022/06/16 08:02:55;;;;;;;9.23;4.38;;;;;;;20.44;58.16;93113.97;2048339;69;20159;-72
2022/06/16 08:05:21;;;;;;;15.50;4.85;;;;;;;20.56;57.94;93092.19;2047740;69;20147;-70
2022/06/16 08:07:46;;;;;;;10.27;4.43;;;;;;;20.57;57.16;93101.50;2047644;70;20568;-71
2022/06/16 08:10:16;;;;;;;11.15;4.15;;;;;;;20.56;57.17;93100.78;2046841;70;20154;-70
2022/06/16 08:12:42;;;;;;;13.13;4.55;;;;;;;20.48;57.75;93111.22;2047778;70;20250;-71
2022/06/16 08:15:09;;;;;;;10.10;4.22;;;;;;;20.43;56.96;93110.34;2048896;70;20141;-72
2022/06/16 08:17:38;;;;;;;10.57;4.82;;;;;;;20.42;57.76;93113.88;2052115;70;20158;-72
2022/06/16 08:20:04;;;;;;;10.50;4.95;;;;;;;20.39;59.26;93135.97;2048916;70;20150;-72
2022/06/16 08:22:30;;;;;;;12.40;5.68;;;;;;;20.50;59.28;93157.06;2044249;70;20148;-72
2022/06/16 08:25:03;;;;;;;12.40;5.40;;;;;;;20.64;58.97;93168.22;2047121;70;20603;-72
2022/06/16 08:27:32;;;;;;;12.20;4.60;;;;;;;20.71;59.69;93182.03;2046785;70;20566;-73
2022/06/16 08:29:59;;;;;;;11.88;4.30;;;;;;;20.73;61.07;93170.66;2044084;70;20208;-71
2022/06/16 08:32:25;;;;;;;10.13;4.63;;;;;;;21.03;57.64;93164.38;2047578;70;20152;-71
2022/06/16 08:34:51;;;;;;;10.18;4.68;;;;;;;21.33;60.08;93161.69;2041706;69;20213;-72
2022/06/16 08:37:19;;;;;;;6.57;4.22;;;;;;;21.41;58.25;93164.78;2045584;70;20166;-71
2022/06/16 08:39:44;;;;;;;12.30;4.72;;;;;;;21.29;59.54;93155.81;2046631;70;20157;-71
2022/06/16 08:42:15;;;;;;;9.85;4.50;;;;;;;21.29;62.36;93150.81;2046060;70;20154;-72
2022/06/16 08:45:05;;;;;;;11.57;4.50;;;;;;;20.92;64.54;93142.59;2047335;69;20277;-73
2022/06/16 08:47:36;;;;;;;12.68;4.78;;;;;;;21.05;63.62;93150.84;2046565;69;20622;-74
2022/06/16 08:50:11;;;;;;;9.57;4.40;;;;;;;20.84;64.61;93160.22;2045299;70;20193;-73
2022/06/16 08:53:18;;;;;;;11.13;5.18;;;;;;;20.92;64.63;93154.03;2046927;69;20206;-73
2022/06/16 08:56:03;;;;;;;7.10;4.28;;;;;;;20.98;61.42;93159.91;2046396;69;20155;-72
2022/06/16 08:58:45;;;;;;;10.27;4.50;;;;;;;20.89;64.93;93176.16;2045640;70;20713;-73
2022/06/16 09:01:16;;;;;;;14.45;4.28;;;;;;;20.76;64.38;93195.06;2048416;70;20154;-73
2022/06/16 09:03:46;;;;;;;11.20;4.55;;;;;;;20.56;66.22;93189.44;2047554;70;20158;-73
2022/06/16 09:06:25;;;;;;;8.20;4.60;;;;;;;20.70;64.23;93194.88;2048699;70;20186;-72
2022/06/16 09:08:57;;;;;;;9.63;4.18;;;;;;;20.66;65.49;93191.88;2048696;70;20151;-73
2022/06/16 09:11:43;;;;;;;9.73;4.60;;;;;;;20.62;64.67;93196.75;2048744;70;20170;-74
2022/06/16 09:17:35;;;;;;;10.10;5.10;;;;;;;21.21;60.91;93172.75;2044953;70;20266;-72
2022/06/16 09:20:10;;;;;;;15.30;5.30;;;;;;;21.29;62.20;93184.44;2046768;70;20151;-73
2022/06/16 09:23:08;;;;;;;15.80;5.47;;;;;;;21.30;63.96;93183.78;2047756;70;20277;-73
2022/06/16 09:25:37;;;;;;;11.95;5.22;;;;;;;21.16;63.25;93179.75;2053945;69;20161;-73
2022/06/16 09:28:28;;;;;;;10.25;5.22;;;;;;;20.43;68.20;93201.13;2048984;70;20154;-72
2022/06/16 09:30:57;;;;;;;16.27;7.18;;;;;;;20.93;64.46;93207.00;2045928;70;20154;-72
2022/06/16 09:33:29;;;;;;;10.32;5.53;;;;;;;21.14;63.89;93214.06;2045678;70;20139;-72
2022/06/16 09:36:23;;;;;;;9.18;5.05;;;;;;;21.11;66.55;93215.41;2049037;70;20147;-76
2022/06/16 09:39:10;;;;;;;11.45;5.47;;;;;;;21.27;61.30;93196.56;2047693;70;20300;-71
2022/06/16 09:44:34;;;;;;;14.40;5.30;;;;;;;21.30;65.52;93185.91;2047045;70;20235;-72
2022/06/16 09:47:07;;;;;;;10.37;5.50;;;;;;;21.95;62.74;93187.72;2046540;70;20151;-72
2022/06/16 09:49:44;;;;;;;;;;;;;;;21.41;63.61;93196.28;2046147;70;20264;-72
2022/06/16 09:52:19;;;;;;;9.52;5.13;;;;;;;21.87;61.21;93198.97;2042540;70;20122;-72
2022/06/16 09:55:14;;;;;;;12.95;5.20;;;;;;;21.88;61.20;93234.81;2046013;70;20143;-72
2022/06/16 09:57:47;;;;;;;12.48;5.22;;;;;;;21.31;64.73;93242.53;2046936;70;20150;-70
2022/06/16 10:00:24;;;;;;;8.43;5.13;;;;;;;21.33;65.14;93255.44;2047209;70;20155;-71
2022/06/16 10:02:56;;;;;;;9.73;5.18;;;;;;;20.73;64.84;93272.91;2048845;70;20150;-72
2022/06/16 10:05:42;;;;;;;10.70;5.07;;;;;;;21.32;61.76;93294.81;2049166;70;20217;-72
2022/06/16 10:08:19;;;;;;;11.55;4.97;;;;;;;21.42;63.31;93257.88;2050553;70;20549;-73
2022/06/16 10:10:54;;;;;;;14.00;5.07;;;;;;;20.98;65.71;93255.13;2049068;70;20158;-72
2022/06/16 10:13:32;;;;;;;12.02;5.75;;;;;;;20.75;68.01;93265.09;2049093;70;20146;-72
2022/06/16 10:16:05;;;;;;;14.13;5.03;;;;;;;21.76;64.16;93271.72;2048397;70;20154;-71
2022/06/16 10:18:31;;;;;;;10.38;5.75;;;;;;;21.89;65.66;93278.53;2044472;70;20166;-72
2022/06/16 10:20:57;;;;;;;9.80;4.85;;;;;;;22.18;63.61;93277.22;2045744;70;20223;-72
2022/06/16 10:23:27;;;;;;;12.90;5.20;;;;;;;22.80;60.87;93269.47;2046522;69;20293;-72
2022/06/16 10:26:04;;;;;;;9.13;4.75;;;;;;;23.40;61.82;93276.59;2044815;70;20159;-72
2022/06/16 10:28:42;;;;;;;11.18;5.28;;;;;;;23.45;61.68;93284.63;2047013;70;20790;-72
2022/06/16 10:31:15;;;;;;;11.70;4.93;;;;;;;23.27;60.62;93279.19;2045082;70;20528;-73
2022/06/16 10:33:56;;;;;;;14.13;5.10;;;;;;;22.97;62.10;93264.88;2048429;70;20605;-73
2022/06/16 10:36:25;;;;;;;13.98;5.30;;;;;;;23.05;61.73;93272.97;2039482;70;20240;-73
2022/06/16 10:39:26;;;;;;;17.85;5.40;;;;;;;23.04;59.87;93268.59;2048297;70;20158;-71
2022/06/16 10:42:20;;;;;;;12.48;5.63;;;;;;;23.03;57.25;93250.66;2046921;69;20235;-72
2022/06/16 10:45:11;;;;;;;14.63;5.93;;;;;;;22.43;60.45;93256.34;2047318;70;20182;-72
2022/06/16 10:47:51;;;;;;;12.15;5.45;;;;;;;22.41;63.21;93270.66;2044200;70;20143;-72
2022/06/16 10:50:28;;;;;;;12.18;5.63;;;;;;;22.34;66.39;93274.75;2047315;70;20158;-72
2022/06/16 10:53:00;;;;;;;13.20;5.43;;;;;;;22.41;65.32;93282.13;2047448;70;20233;-72
2022/06/16 10:55:34;;;;;;;11.70;5.30;;;;;;;22.58;64.56;93271.78;2048962;70;20237;-71
2022/06/16 10:58:23;;;;;;;12.15;5.30;;;;;;;23.01;59.24;93270.00;2050684;70;20158;-73
2022/06/16 11:01:08;;;;;;;9.90;5.38;;;;;;;23.05;57.47;93270.09;2050709;70;20643;-71
2022/06/16 11:04:04;;;;;;;11.77;5.05;;;;;;;24.00;58.05;93265.66;2049284;70;20632;-71
2022/06/16 11:06:30;;;;;;;14.45;5.05;;;;;;;27.93;47.74;93263.34;2050235;70;20632;-71
2022/06/16 11:09:00;;;;;;;11.45;5.43;;;;;;;30.24;42.14;93267.13;2050479;70;20216;-72
2022/06/16 11:11:54;;;;;;;8.07;4.40;;;;;;;31.74;39.36;93261.72;2050391;70;20233;-72
2022/06/16 11:14:28;;;;;;;8.88;4.68;;;;;;;26.98;47.94;93252.59;2047701;70;20150;-73
2022/06/16 11:16:55;;;;;;;9.63;4.45;;;;;;;26.14;49.69;93253.91;2046871;70;20227;-73
2022/06/16 11:19:33;;;;;;;10.88;4.88;;;;;;;26.03;51.42;93258.84;2047272;70;20204;-73
2022/06/16 11:22:03;;;;;;;12.50;4.80;;;;;;;25.38;52.71;93255.09;2048492;70;20161;-74
2022/06/16 11:24:32;;;;;;;10.60;5.22;;;;;;;27.08;50.83;93267.16;2046074;70;20173;-72
2022/06/16 11:27:15;;;;;;;10.57;5.97;;;;;;;24.64;57.29;93261.81;2046816;70;20170;-72
2022/06/16 11:29:42;;;;;;;11.40;5.57;;;;;;;24.70;56.95;93256.19;2045209;70;20147;-74
2022/06/16 11:32:37;;;;;;;12.45;5.70;;;;;;;24.97;55.31;93251.59;2045135;70;20153;-73
2022/06/16 11:35:08;;;;;;;10.20;5.00;;;;;;;24.16;56.70;93242.25;2030528;70;20145;-72
2022/06/16 11:37:52;;;;;;;12.18;5.38;;;;;;;23.49;58.24;93238.75;2029355;70;20168;-72
2022/06/16 11:40:32;;;;;;;13.07;5.45;;;;;;;25.01;55.42;93225.72;2030583;70;20156;-72
2022/06/16 11:43:08;;;;;;;11.73;4.90;;;;;;;23.64;58.00;93228.31;2030569;70;20167;-71
2022/06/16 11:45:40;;;;;;;12.27;5.45;;;;;;;25.69;55.32;93233.16;2030804;70;20307;-70
2022/06/16 11:48:22;;;;;;;10.65;5.22;;;;;;;28.22;46.96;93235.25;2027774;70;20347;-70
2022/06/16 11:50:57;;;;;;;8.73;4.85;;;;;;;27.20;48.52;93225.31;2030641;70;20593;-73
2022/06/16 11:53:39;;;;;;;9.95;5.10;;;;;;;26.42;49.23;93224.63;2031022;70;20152;-73
2022/06/16 11:56:35;;;;;;;11.43;5.00;;;;;;;25.62;52.14;93228.03;2030229;70;20221;-74
2022/06/16 11:59:30;;;;;;;12.25;5.05;;;;;;;25.09;52.73;93223.00;2030768;70;20278;-72
2022/06/16 12:02:19;;;;;;;11.88;4.88;;;;;;;25.01;54.45;93217.06;2036559;70;20179;-72
2022/06/16 12:05:08;;;;;;;9.88;5.00;;;;;;;25.10;53.65;93197.78;2036815;70;20144;-71
2022/06/16 12:08:00;;;;;;;9.10;3.92;;;;;;;25.12;54.01;93194.22;2040132;70;20183;-73
2022/06/16 12:10:39;;;;;;;10.68;5.10;;;;;;;25.05;53.59;93228.66;2015290;70;20150;-73
2022/06/16 12:13:20;;;;;;;6.75;4.45;;;;;;;25.28;53.71;93234.78;2025185;70;20610;-72
2022/06/16 12:16:03;;;;;;;9.98;4.65;;;;;;;25.32;53.52;93226.19;2027708;70;20165;-73
2022/06/16 12:18:31;;;;;;;;;;;;;;;25.22;54.03;93205.88;2025255;70;20153;-74
2022/06/16 12:21:00;;;;;;;10.93;5.10;;;;;;;24.25;56.37;93225.88;2027478;70;20072;-73
2022/06/16 12:23:50;;;;;;;12.43;5.03;;;;;;;24.69;53.83;93223.03;2027926;70;20239;-74
2022/06/16 12:26:33;;;;;;;11.27;5.30;;;;;;;24.59;55.72;93189.06;2026820;70;20325;-72